Fortson, Georgia
Current Conditions -  °F | °C
As of 12:51 AM on Thursday 23 Oct 2014 (Local Time) from KCSG Reporting Station
Clear Clear  
Wind Chill: 54°   Ceiling: Unl
Heat Index: 54°   Visibility: 10mi
Dew Point: 42°   Wind: 0mph
Humidity: 64%   Direction: NA
Pressure: 30.1"   Gusts: NA
Location:  32.6°N, 84.94°W
Report Text: KCSG 230451Z AUTO 00000KT 10SM CLR 12/06 A3010 RMK AO2 SLP189 T01220056 402220106
Loading
Personal Weather Stations






























Interactive Weather Map
Tropical Storm Tracking
New forecast layout! Learn more

10-Day Weather Forecast

Advertisements
Track Severe Weather on mobile